createdAt,value
2022-09-06T00:03:59.597Z,21.61
2022-09-06T00:09:01.306Z,21.61
2022-09-06T00:19:42.217Z,21.71
2022-09-06T00:24:44.175Z,21.67
2022-09-06T00:35:59.207Z,20.70
2022-09-06T00:41:03.914Z,20.60
2022-09-06T00:46:08.222Z,20.35
2022-09-06T00:51:12.364Z,20.24
2022-09-06T00:56:14.233Z,20.17
2022-09-06T01:01:15.896Z,19.80
2022-09-06T01:06:18.035Z,19.80
2022-09-06T01:11:34.366Z,19.82
2022-09-06T01:16:58.193Z,19.85
2022-09-06T01:22:11.139Z,19.85
2022-09-06T01:33:51.914Z,19.81
2022-09-06T01:44:25.676Z,19.85
2022-09-06T01:55:59.657Z,19.69
2022-09-06T02:12:54.864Z,19.59
2022-09-06T02:18:20.325Z,19.55
2022-09-06T02:23:43.225Z,19.31
2022-09-06T02:34:45.771Z,19.35
2022-09-06T02:39:55.886Z,19.38
2022-09-06T03:08:09.541Z,19.16
2022-09-06T04:05:05.989Z,18.92
2022-09-06T06:00:05.213Z,18.60
2022-09-06T06:05:07.277Z,18.64
2022-09-06T06:10:09.135Z,18.67
2022-09-06T06:15:11.182Z,18.77
2022-09-06T06:20:18.596Z,18.78
2022-09-06T06:25:20.129Z,18.87
2022-09-06T06:30:40.634Z,18.94
2022-09-06T06:41:45.867Z,19.11
2022-09-06T06:52:50.375Z,19.37
2022-09-06T06:57:51.757Z,19.55
2022-09-06T07:02:53.426Z,19.71
2022-09-06T07:07:55.505Z,19.87
2022-09-06T07:12:57.433Z,20.03
2022-09-06T07:17:58.911Z,20.30
2022-09-06T07:28:26.779Z,21.72
2022-09-06T07:33:28.511Z,22.23
2022-09-06T07:38:30.955Z,22.81
2022-09-06T07:43:33.978Z,23.54
2022-09-06T07:48:38.085Z,24.16
2022-09-06T07:53:42.616Z,24.81
2022-09-06T07:58:44.386Z,25.20
2022-09-06T08:03:47.692Z,25.84
2022-09-06T08:13:59.076Z,26.72
2022-09-06T08:19:06.789Z,27.22
2022-09-06T08:24:18.953Z,27.95
2022-09-06T08:29:20.847Z,28.22
2022-09-06T08:34:22.329Z,29.08
2022-09-06T08:39:23.940Z,29.80
2022-09-06T08:45:16.390Z,30.09
2022-09-06T08:50:19.527Z,30.63
2022-09-06T08:55:30.290Z,31.21
2022-09-06T09:01:08.342Z,31.68
2022-09-06T09:06:11.114Z,31.70
2022-09-06T09:11:18.989Z,32.19
2022-09-06T09:16:21.432Z,32.61
2022-09-06T09:21:30.162Z,33.28
2022-09-06T09:26:53.379Z,33.61
2022-09-06T09:31:56.105Z,34.37
2022-09-06T09:37:48.484Z,34.90
2022-09-06T09:43:22.199Z,35.12
2022-09-06T09:48:38.408Z,35.18
2022-09-06T09:54:12.586Z,35.68
2022-09-06T09:59:51.803Z,36.22
2022-09-06T10:05:01.900Z,36.55
2022-09-06T10:10:12.255Z,36.91
2022-09-06T10:15:37.654Z,38.33
2022-09-06T10:20:56.044Z,37.82
2022-09-06T10:26:36.840Z,39.26
2022-09-06T10:31:49.528Z,40.22
2022-09-06T10:37:13.742Z,40.98
2022-09-06T10:42:37.256Z,42.89
2022-09-06T10:48:04.117Z,42.15
2022-09-06T10:53:27.949Z,43.29
2022-09-06T11:04:04.351Z,42.52
2022-09-06T11:09:23.689Z,44.19
2022-09-06T11:14:28.495Z,44.75
2022-09-06T11:19:40.595Z,40.98
2022-09-06T11:25:20.015Z,39.35
2022-09-06T11:30:21.602Z,37.70
2022-09-06T11:35:29.786Z,37.33
2022-09-06T11:40:40.166Z,36.70
2022-09-06T11:45:50.937Z,37.56
2022-09-06T11:50:58.530Z,34.63
2022-09-06T11:55:59.900Z,34.23
2022-09-06T12:01:13.787Z,36.93
2022-09-06T12:06:26.849Z,40.87
2022-09-06T12:11:40.414Z,42.10
2022-09-06T12:17:00.320Z,43.09
2022-09-06T12:22:01.870Z,45.06
2022-09-06T12:27:19.743Z,43.71
2022-09-06T12:32:38.037Z,44.83
2022-09-06T12:37:55.867Z,47.28
2022-09-06T12:42:58.373Z,45.71
2022-09-06T12:48:27.687Z,43.84
2022-09-06T12:53:29.583Z,43.11
2022-09-06T12:58:31.370Z,46.09
2022-09-06T13:03:39.171Z,46.02
2022-09-06T13:08:50.043Z,45.31
2022-09-06T13:13:54.261Z,46.36
2022-09-06T13:19:11.638Z,46.06
2022-09-06T13:24:24.035Z,46.19
2022-09-06T13:29:30.505Z,45.14
2022-09-06T13:34:34.120Z,46.32
2022-09-06T13:39:39.659Z,45.98
2022-09-06T13:44:41.615Z,44.55
2022-09-06T13:49:43.178Z,42.94
2022-09-06T13:54:45.101Z,41.64
2022-09-06T13:59:47.192Z,39.85
2022-09-06T14:04:48.934Z,39.41
2022-09-06T14:09:50.563Z,38.63
2022-09-06T14:14:52.042Z,38.17
2022-09-06T14:19:53.457Z,37.82
2022-09-06T14:24:55.028Z,37.55
2022-09-06T14:29:56.492Z,37.04
2022-09-06T14:34:57.945Z,36.39
2022-09-06T14:39:59.642Z,36.17
2022-09-06T14:45:01.218Z,36.22
2022-09-06T14:50:04.378Z,35.90
2022-09-06T14:55:06.296Z,35.81
2022-09-06T15:00:08.794Z,35.56
2022-09-06T15:05:10.234Z,35.13
2022-09-06T15:10:11.701Z,35.07
2022-09-06T15:15:13.174Z,35.02
2022-09-06T15:20:14.625Z,34.76
2022-09-06T15:25:16.132Z,34.64
2022-09-06T15:30:17.683Z,34.29
2022-09-06T15:35:19.189Z,34.30
2022-09-06T15:40:20.632Z,34.11
2022-09-06T15:45:22.043Z,33.99
2022-09-06T15:50:47.457Z,33.87
2022-09-06T15:55:45.525Z,33.75
2022-09-06T16:00:49.078Z,33.62
2022-09-06T16:11:16.689Z,33.25
2022-09-06T16:16:18.432Z,33.01
2022-09-06T16:21:19.819Z,32.92
2022-09-06T16:26:23.195Z,32.66
2022-09-06T16:31:25.034Z,32.59
2022-09-06T16:36:27.578Z,32.34
2022-09-06T16:41:41.473Z,32.09
2022-09-06T16:46:45.031Z,31.85
2022-09-06T16:51:47.953Z,31.53
2022-09-06T16:56:50.344Z,31.24
2022-09-06T17:01:51.914Z,30.78
2022-09-06T17:06:53.414Z,30.39
2022-09-06T17:11:54.822Z,30.06
2022-09-06T17:16:56.362Z,29.87
2022-09-06T17:21:58.007Z,29.68
2022-09-06T17:26:59.417Z,29.63
2022-09-06T17:32:01.047Z,29.52
2022-09-06T17:37:03.257Z,29.42
2022-09-06T17:42:05.045Z,29.14
2022-09-06T17:47:14.562Z,28.96
2022-09-06T17:52:16.370Z,28.77
2022-09-06T17:57:17.930Z,28.47
2022-09-06T18:02:19.715Z,28.21
2022-09-06T18:07:21.562Z,27.86
2022-09-06T18:12:23.240Z,27.67
2022-09-06T18:17:25.174Z,27.52
2022-09-06T18:22:29.027Z,27.52
2022-09-06T18:28:04.488Z,27.44
2022-09-06T18:33:06.217Z,27.35
2022-09-06T18:38:08.048Z,27.24
2022-09-06T18:43:09.751Z,27.14
2022-09-06T18:48:11.574Z,26.98
2022-09-06T18:53:14.015Z,26.86
2022-09-06T18:58:22.117Z,27.02
2022-09-06T19:14:36.724Z,27.22
2022-09-06T19:42:34.312Z,26.96
2022-09-06T19:47:47.733Z,26.93
2022-09-06T19:53:07.171Z,26.76
2022-09-06T19:58:23.895Z,26.55
2022-09-06T20:03:28.646Z,26.47
2022-09-06T20:50:18.011Z,24.89
2022-09-06T21:01:19.546Z,24.53
2022-09-06T21:17:56.986Z,24.19
2022-09-06T21:23:22.443Z,23.87
2022-09-06T21:34:25.933Z,23.64
2022-09-06T21:44:52.932Z,23.84
2022-09-06T21:50:01.380Z,23.86
2022-09-06T21:55:18.340Z,23.86
2022-09-06T22:00:27.383Z,23.90
2022-09-06T22:05:34.475Z,23.90
2022-09-06T22:10:37.944Z,23.88
2022-09-06T22:16:08.516Z,23.86
2022-09-06T23:21:03.300Z,22.83
2022-09-06T23:26:15.625Z,21.48
2022-09-06T23:31:18.038Z,20.26
2022-09-06T23:36:19.691Z,19.72
2022-09-06T23:41:21.276Z,19.53
2022-09-06T23:46:22.717Z,19.45
2022-09-06T23:51:24.335Z,19.25
2022-09-06T23:56:28.787Z,19.19
